AirNav   TITAN Aviation Fuels
 
 436 users online  

7GA7 Berry Hill Airport
Stockbridge, Georgia, USA

GOING TO STOCKBRIDGE?


FAA INFORMATION EFFECTIVE 17 JUNE 2021

Location

FAA Identifier: 7GA7
Lat/Long: 33-32-08.0000N 084-10-44.6000W
33-32.133333N 084-10.743333W
33.5355556,-84.1790556
(estimated)
Elevation: 770 ft. / 235 m (estimated)
Variation: 02W (1985)
From city: 3 miles E of STOCKBRIDGE, GA
Time zone: UTC -4 (UTC -5 during Standard Time)
Zip code: 30281

Airport Operations

Airport use: Private use. Permission required prior to landing
Activation date: 06/1967
Control tower: no
ARTCC: ATLANTA CENTER
FSS: MACON FLIGHT SERVICE STATION
Attendance: IREG
Wind indicator: yes
Segmented circle: no
Lights: RDO-CTL

Airport Communications

UNICOM: 122.8
WX AWOS-3 at HMP (12 nm SW): 124.825 (770-707-1719)
WX ASOS at ATL (14 nm NW): PHONE 404-559-5166
WX AWOS-3 at CVC (18 nm E): 118.725 (770-385-7057)
WX AWOS-3 at 6A2 (19 nm S): 119.750 (770-227-3934)

Nearby radio navigation aids

VOR radial/distance  VOR name  Freq  Var
ATLr119/14.0ATLANTA VORTAC116.9005W
PDKr169/21.3PEACHTREE VOR/DME116.6005W

 
NDB name  Hdg/Dist  Freq  Var  ID
ALCOVY257/20.637003WVOF ...- --- ..-.
PECAT053/20.931605WFFC ..-. ..-. -.-.
COWETA COUNTY061/31.623403WEQQ . --.- --.-
BARROW COUNTY236/38.040405WBMW -... -- .--

Airport Services

Fuel available: 100LL
100LL:FOR FUEL WHEN UNATTENDED CALL: 770-527-4890 OR 770-235-6027.
Parking: hangars and tiedowns
Airframe service: NONE
Powerplant service: NONE
Bottled oxygen: NONE
Bulk oxygen: NONE

Runway Information

Runway 11/29

Dimensions: 3000 x 40 ft. / 914 x 12 m
Surface: asphalt, in fair condition
Runway edge lights: non-standard
RY LGTS NTSD IN NUMBER, TYPE, AND GLOBE COLOR; NO LIGHTS AT DISPCD THLD.
Runway edge markings: RY 11/29 NTSD BSC MARKING, NUMBERS SMALL.
RUNWAY 11  RUNWAY 29
Latitude: 33-32.218500N33-32.047500N
Longitude: 084-11.021333W084-10.466833W
Traffic pattern: leftleft
Markings: NSTD, in fair conditionNSTD, in fair condition
Obstructions: 30 ft. pline, marked, 200 ft. from runway
RWY 11 PLINE, +40 FT TREES, & ROAD AT RWY END.
115 ft. trees, 545 ft. from runway, 3:1 slope to clear
RY 29 +4 FT FENCE AND BRUSH 10 FT FROM RY END, +30-50 FT TREES AND BRUSH 30 FT RIGHT AND 50 FT LEFT OF CENTERLINE AT RY END.

Airport Ownership and Management from official FAA records

Ownership: Privately-owned
Owner: FRIENDS OF BERRY HILL
165 KITTY HAWK
STOCKBRIDGE, GA 30281
Phone 770-977-7572
Manager: MATT WEST
165 KITTY HAWK
STOCKBRIDGE, GA 30281
Phone 770-474-5126

Airport Operational Statistics

Aircraft based on the field: 33
Single engine airplanes: 32
Multi engine airplanes: 1
    
Aircraft operations: avg 96/week *
50% transient general aviation
50% local general aviation
* for 12-month period ending 09 June 2012

Additional Remarks

FOR CD CTC ATLANTA APCH AT 678-364-6131.

Instrument Procedures

There are no published instrument procedures at 7GA7.

Some nearby airports with instrument procedures:

KHMP - Atlanta Speedway Airport (12 nm SW)
KATL - Hartsfield - Jackson Atlanta International Airport (14 nm NW)
KCVC - Covington Municipal Airport (18 nm E)
6A2 - Griffin-Spalding County Airport (19 nm S)
KPDK - Dekalb-Peachtree Airport (21 nm N)
 
Loc | Ops | Rwys | IFR | FBO | Links
Com | Nav | Svcs | Stats | Notes
Area around 7GA7 (Berry Hill Airport)
 
Road maps at: MapQuest Bing Google
 
Aerial photo
WARNING: Photo may not be current or correct
Aerial photo of 7GA7 (Berry Hill Airport)
Photo by Jake Williams Jr
Photo taken 10-Jun-2016
looking northwest 400 ft.

Do you have a better or more recent aerial photo of Berry Hill Airport that you would like to share? If so, please send us your photo.

 
Sectional chart

 
Airport distance calculator
Flying to Berry Hill Airport? Find the distance to fly.

From to 7GA7

Sunrise and sunset
Times for 17-Jun-2021
 Local
(UTC-4)
 Zulu
(UTC)
Morning civil twilight05:5809:58
Sunrise06:2710:27
Sunset20:4800:48
Evening civil twilight21:1701:17

Current date and time
Zulu (UTC)  17-Jun-2021 09:46:28
Local (UTC-4)  17-Jun-2021 05:46:28
 
METAR
KHMP 
12nm SW 
170935Z AUTO 00000KT 10SM CLR 14/14 A3006 RMK AO2 T01420138
KATL 
15nm NW 
170852Z 32006KT 10SM CLR 19/13 A3002 RMK AO2 SLP155 T01940133 56002
KCVC 
18nm E 
170935Z AUTO 00000KT 10SM CLR 15/13 A3001 RMK AO2
K6A2 
19nm S 
170935Z AUTO 00000KT 10SM CLR 17/13 A3002 RMK AO2
KPDK 
22nm N 
170853Z 00000KT 10SM CLR 16/14 A3002 RMK AO2 SLP152 T01560139 55002
KFFC 
22nm SW 
170853Z AUTO 00000KT 9SM CLR 16/14 A3002 RMK AO2 SLP160 T01560144 55001
KFTY 
22nm NW 
170853Z 05003KT 10SM CLR 16/13 A3002 RMK AO2 SLP156 T01560133 55002
TAF
KATL 
15nm NW 
170736Z 1708/1812 33005KT P6SM SKC FM171200 05005KT P6SM SKC FM172000 35003KT P6SM FEW090 FM180200 03003KT P6SM SKC
NOTAMs
Click for the latest NOTAMs
NOTAMs are issued by the DoD/FAA and will open in a separate window not controlled by AirNav.

 

 
 

Aviation Businesses, Services, and Facilities

  
 Business Name 
 
 Contact 
 
 Services / Description 
 
Distance
 
Comments
  
Berry Hill Aviation 770-977-7572
no information available

If you are affiliated with Berry Hill Aviation and would like to show here your services, contact info, web link, logo, and more, click here
on airport  
   write
 

Would you like to see your business listed on this page?

 If your business provides an interesting product or service to pilots, flight crews, aircraft, or users of the Berry Hill Airport, you should consider listing it here.  To start the listing process, click on the button below
 
Add a business
 

Other Pages about Berry Hill Airport

Update a link
 
Copyright © AirNav, LLC. All rights reserved. Privacy Policy  Contact